<?xml version="1.0" encoding="UTF-8" standalone="no" ?>
<gpx xmlns="http://www.topografix.com/GPX/1/1" xmlns:xsi="http://www.w3.org/2001/XMLSchema-instance" xsi:schemaLocation="http://www.topografix.com/GPX/1/1 http://www.topografix.com/GPX/1/1/gpx.xsd" version="1.1" creator="VisuGPX - https://www.visugpx.com">
  <metadata>
    <name>Arêches-Croix du Berger</name>
    <desc><![CDATA[Carte IGN TOP25 : 35320T
Niveau TTD.
Départ d'Arêches-Le Mappaz.

]]></desc>
  </metadata>
  <trk>
    <name><![CDATA[Arèches-Croix du Berger]]></name>
    <cmt><![CDATA[Carte IGN TOP25 : 35320T
Départ d'Arèches-Le Mappaz.]]></cmt>
    <trkseg>
      <trkpt lat="45.67278" lon="6.5797">
        <ele>1314</ele>
        <time>2020-12-16T07:30:00.514Z</time>
      </trkpt>
      <trkpt lat="45.67246" lon="6.5796">
        <ele>1317</ele>
        <time>2020-12-16T07:30:58.136Z</time>
      </trkpt>
      <trkpt lat="45.67123" lon="6.57805">
        <ele>1337</ele>
        <time>2020-12-16T07:35:59.542Z</time>
      </trkpt>
      <trkpt lat="45.67098" lon="6.57795">
        <ele>1341</ele>
        <time>2020-12-16T07:36:49.197Z</time>
      </trkpt>
      <trkpt lat="45.66952" lon="6.57797">
        <ele>1361</ele>
        <time>2020-12-16T07:41:17.561Z</time>
      </trkpt>
      <trkpt lat="45.66894" lon="6.57813">
        <ele>1367</ele>
        <time>2020-12-16T07:42:56.534Z</time>
      </trkpt>
      <trkpt lat="45.668" lon="6.57803">
        <ele>1377</ele>
        <time>2020-12-16T07:45:31.552Z</time>
      </trkpt>
      <trkpt lat="45.66759" lon="6.57831">
        <ele>1381</ele>
        <time>2020-12-16T07:46:42.999Z</time>
      </trkpt>
      <trkpt lat="45.66684" lon="6.5785">
        <ele>1386</ele>
        <time>2020-12-16T07:48:39.810Z</time>
      </trkpt>
      <trkpt lat="45.66647" lon="6.57869">
        <ele>1388</ele>
        <time>2020-12-16T07:49:37.929Z</time>
      </trkpt>
      <trkpt lat="45.66613" lon="6.57873">
        <ele>1389</ele>
        <time>2020-12-16T07:50:31.224Z</time>
      </trkpt>
      <trkpt lat="45.66564" lon="6.579">
        <ele>1393</ele>
        <time>2020-12-16T07:51:55.966Z</time>
      </trkpt>
      <trkpt lat="45.66442" lon="6.57923">
        <ele>1406</ele>
        <time>2020-12-16T07:55:17.968Z</time>
      </trkpt>
      <trkpt lat="45.66355" lon="6.57908">
        <ele>1414</ele>
        <time>2020-12-16T07:57:38.947Z</time>
      </trkpt>
      <trkpt lat="45.66332" lon="6.57895">
        <ele>1416</ele>
        <time>2020-12-16T07:58:18.033Z</time>
      </trkpt>
      <trkpt lat="45.66297" lon="6.57887">
        <ele>1418</ele>
        <time>2020-12-16T07:59:12.360Z</time>
      </trkpt>
      <trkpt lat="45.66273" lon="6.57862">
        <ele>1420</ele>
        <time>2020-12-16T07:59:59.215Z</time>
      </trkpt>
      <trkpt lat="45.66238" lon="6.57847">
        <ele>1424</ele>
        <time>2020-12-16T08:00:58.022Z</time>
      </trkpt>
      <trkpt lat="45.66208" lon="6.57848">
        <ele>1426</ele>
        <time>2020-12-16T08:01:45.512Z</time>
      </trkpt>
      <trkpt lat="45.66189" lon="6.57865">
        <ele>1428</ele>
        <time>2020-12-16T08:02:20.346Z</time>
      </trkpt>
      <trkpt lat="45.66167" lon="6.57873">
        <ele>1430</ele>
        <time>2020-12-16T08:02:58.005Z</time>
      </trkpt>
      <trkpt lat="45.66113" lon="6.57843">
        <ele>1435</ele>
        <time>2020-12-16T08:04:27.273Z</time>
      </trkpt>
      <trkpt lat="45.6608" lon="6.57798">
        <ele>1437</ele>
        <time>2020-12-16T08:05:36.110Z</time>
      </trkpt>
      <trkpt lat="45.66063" lon="6.57789">
        <ele>1438</ele>
        <time>2020-12-16T08:06:02.740Z</time>
      </trkpt>
      <trkpt lat="45.66029" lon="6.57798">
        <ele>1440</ele>
        <time>2020-12-16T08:06:56.474Z</time>
      </trkpt>
      <trkpt lat="45.65994" lon="6.57817">
        <ele>1442</ele>
        <time>2020-12-16T08:07:52.670Z</time>
      </trkpt>
      <trkpt lat="45.65979" lon="6.57866">
        <ele>1444</ele>
        <time>2020-12-16T08:08:49.986Z</time>
      </trkpt>
      <trkpt lat="45.65961" lon="6.57885">
        <ele>1446</ele>
        <time>2020-12-16T08:09:25.954Z</time>
      </trkpt>
      <trkpt lat="45.65928" lon="6.57896">
        <ele>1448</ele>
        <time>2020-12-16T08:10:19.349Z</time>
      </trkpt>
      <trkpt lat="45.65827" lon="6.57894">
        <ele>1456</ele>
        <time>2020-12-16T08:12:58.497Z</time>
      </trkpt>
      <trkpt lat="45.65781" lon="6.5788">
        <ele>1460</ele>
        <time>2020-12-16T08:14:12.589Z</time>
      </trkpt>
      <trkpt lat="45.6574" lon="6.57854">
        <ele>1463</ele>
        <time>2020-12-16T08:15:21.559Z</time>
      </trkpt>
      <trkpt lat="45.65698" lon="6.5785">
        <ele>1466</ele>
        <time>2020-12-16T08:16:26.978Z</time>
      </trkpt>
      <trkpt lat="45.6565" lon="6.57823">
        <ele>1469</ele>
        <time>2020-12-16T08:17:45.788Z</time>
      </trkpt>
      <trkpt lat="45.65555" lon="6.57836">
        <ele>1475</ele>
        <time>2020-12-16T08:20:12.393Z</time>
      </trkpt>
      <trkpt lat="45.65419" lon="6.5783">
        <ele>1483</ele>
        <time>2020-12-16T08:23:34.770Z</time>
      </trkpt>
      <trkpt lat="45.65291" lon="6.5785">
        <ele>1486</ele>
        <time>2020-12-16T08:26:45.450Z</time>
      </trkpt>
      <trkpt lat="45.65206" lon="6.5789">
        <ele>1492</ele>
        <time>2020-12-16T08:29:06.582Z</time>
      </trkpt>
      <trkpt lat="45.65197" lon="6.57901">
        <ele>1493</ele>
        <time>2020-12-16T08:29:24.572Z</time>
      </trkpt>
      <trkpt lat="45.65201" lon="6.57906">
        <ele>1493</ele>
        <time>2020-12-16T08:29:33.996Z</time>
      </trkpt>
      <trkpt lat="45.65249" lon="6.57894">
        <ele>1498</ele>
        <time>2020-12-16T08:30:51.481Z</time>
      </trkpt>
      <trkpt lat="45.65286" lon="6.57891">
        <ele>1501</ele>
        <time>2020-12-16T08:31:50.720Z</time>
      </trkpt>
      <trkpt lat="45.65378" lon="6.57898">
        <ele>1508</ele>
        <time>2020-12-16T08:34:15.285Z</time>
      </trkpt>
      <trkpt lat="45.65421" lon="6.57931">
        <ele>1512</ele>
        <time>2020-12-16T08:35:35.577Z</time>
      </trkpt>
      <trkpt lat="45.65519" lon="6.57976">
        <ele>1523</ele>
        <time>2020-12-16T08:38:30.527Z</time>
      </trkpt>
      <trkpt lat="45.65553" lon="6.57998">
        <ele>1527</ele>
        <time>2020-12-16T08:39:34.113Z</time>
      </trkpt>
      <trkpt lat="45.6559" lon="6.58034">
        <ele>1532</ele>
        <time>2020-12-16T08:40:50.033Z</time>
      </trkpt>
      <trkpt lat="45.65585" lon="6.58043">
        <ele>1533</ele>
        <time>2020-12-16T08:41:03.665Z</time>
      </trkpt>
      <trkpt lat="45.65537" lon="6.58021">
        <ele>1538</ele>
        <time>2020-12-16T08:42:24.611Z</time>
      </trkpt>
      <trkpt lat="45.65422" lon="6.58003">
        <ele>1548</ele>
        <time>2020-12-16T08:45:28.958Z</time>
      </trkpt>
      <trkpt lat="45.65399" lon="6.57988">
        <ele>1550</ele>
        <time>2020-12-16T08:46:13.182Z</time>
      </trkpt>
      <trkpt lat="45.65311" lon="6.57986">
        <ele>1560</ele>
        <time>2020-12-16T08:48:47.540Z</time>
      </trkpt>
      <trkpt lat="45.65239" lon="6.58016">
        <ele>1569</ele>
        <time>2020-12-16T08:50:44.676Z</time>
      </trkpt>
      <trkpt lat="45.65154" lon="6.58087">
        <ele>1572</ele>
        <time>2020-12-16T08:53:02.815Z</time>
      </trkpt>
      <trkpt lat="45.65116" lon="6.5808">
        <ele>1570</ele>
        <time>2020-12-16T08:53:54.698Z</time>
      </trkpt>
      <trkpt lat="45.65101" lon="6.58094">
        <ele>1569</ele>
        <time>2020-12-16T08:54:20.856Z</time>
      </trkpt>
      <trkpt lat="45.65098" lon="6.58122">
        <ele>1568</ele>
        <time>2020-12-16T08:54:48.604Z</time>
      </trkpt>
      <trkpt lat="45.65118" lon="6.58242">
        <ele>1568</ele>
        <time>2020-12-16T08:56:52.390Z</time>
      </trkpt>
      <trkpt lat="45.65115" lon="6.58258">
        <ele>1569</ele>
        <time>2020-12-16T08:57:08.960Z</time>
      </trkpt>
      <trkpt lat="45.65079" lon="6.58329">
        <ele>1571</ele>
        <time>2020-12-16T08:58:40.813Z</time>
      </trkpt>
      <trkpt lat="45.65076" lon="6.58363">
        <ele>1573</ele>
        <time>2020-12-16T08:59:17.113Z</time>
      </trkpt>
      <trkpt lat="45.6506" lon="6.5842">
        <ele>1574</ele>
        <time>2020-12-16T09:00:19.657Z</time>
      </trkpt>
      <trkpt lat="45.65048" lon="6.58441">
        <ele>1575</ele>
        <time>2020-12-16T09:00:45.863Z</time>
      </trkpt>
      <trkpt lat="45.65032" lon="6.58446">
        <ele>1575</ele>
        <time>2020-12-16T09:01:07.959Z</time>
      </trkpt>
      <trkpt lat="45.65006" lon="6.58399">
        <ele>1574</ele>
        <time>2020-12-16T09:02:06.302Z</time>
      </trkpt>
      <trkpt lat="45.64992" lon="6.58388">
        <ele>1573</ele>
        <time>2020-12-16T09:02:28.474Z</time>
      </trkpt>
      <trkpt lat="45.64964" lon="6.58397">
        <ele>1570</ele>
        <time>2020-12-16T09:03:10.333Z</time>
      </trkpt>
      <trkpt lat="45.64932" lon="6.58397">
        <ele>1566</ele>
        <time>2020-12-16T09:03:58.296Z</time>
      </trkpt>
      <trkpt lat="45.64896" lon="6.58387">
        <ele>1562</ele>
        <time>2020-12-16T09:04:51.229Z</time>
      </trkpt>
      <trkpt lat="45.64837" lon="6.58388">
        <ele>1558</ele>
        <time>2020-12-16T09:06:12.286Z</time>
      </trkpt>
      <trkpt lat="45.64815" lon="6.58402">
        <ele>1559</ele>
        <time>2020-12-16T09:06:50.707Z</time>
      </trkpt>
      <trkpt lat="45.64762" lon="6.58473">
        <ele>1565</ele>
        <time>2020-12-16T09:08:44.832Z</time>
      </trkpt>
      <trkpt lat="45.64749" lon="6.5848">
        <ele>1566</ele>
        <time>2020-12-16T09:09:05.929Z</time>
      </trkpt>
      <trkpt lat="45.64718" lon="6.58467">
        <ele>1568</ele>
        <time>2020-12-16T09:09:51.714Z</time>
      </trkpt>
      <trkpt lat="45.64662" lon="6.58389">
        <ele>1567</ele>
        <time>2020-12-16T09:11:39.250Z</time>
      </trkpt>
      <trkpt lat="45.64657" lon="6.58373">
        <ele>1566</ele>
        <time>2020-12-16T09:11:56.583Z</time>
      </trkpt>
      <trkpt lat="45.64658" lon="6.58351">
        <ele>1565</ele>
        <time>2020-12-16T09:12:17.607Z</time>
      </trkpt>
      <trkpt lat="45.64649" lon="6.58329">
        <ele>1564</ele>
        <time>2020-12-16T09:12:42.957Z</time>
      </trkpt>
      <trkpt lat="45.6463" lon="6.58312">
        <ele>1563</ele>
        <time>2020-12-16T09:13:12.811Z</time>
      </trkpt>
      <trkpt lat="45.64607" lon="6.58326">
        <ele>1562</ele>
        <time>2020-12-16T09:13:48.469Z</time>
      </trkpt>
      <trkpt lat="45.64586" lon="6.58307">
        <ele>1563</ele>
        <time>2020-12-16T09:14:24.676Z</time>
      </trkpt>
      <trkpt lat="45.64525" lon="6.58292">
        <ele>1566</ele>
        <time>2020-12-16T09:15:58.013Z</time>
      </trkpt>
      <trkpt lat="45.645" lon="6.58297">
        <ele>1567</ele>
        <time>2020-12-16T09:16:34.853Z</time>
      </trkpt>
      <trkpt lat="45.64428" lon="6.58282">
        <ele>1570</ele>
        <time>2020-12-16T09:18:20.714Z</time>
      </trkpt>
      <trkpt lat="45.64399" lon="6.58287">
        <ele>1570</ele>
        <time>2020-12-16T09:19:01.644Z</time>
      </trkpt>
      <trkpt lat="45.64367" lon="6.5831">
        <ele>1571</ele>
        <time>2020-12-16T09:19:52.366Z</time>
      </trkpt>
      <trkpt lat="45.64339" lon="6.58319">
        <ele>1571</ele>
        <time>2020-12-16T09:20:35.045Z</time>
      </trkpt>
      <trkpt lat="45.64327" lon="6.58304">
        <ele>1572</ele>
        <time>2020-12-16T09:20:58.838Z</time>
      </trkpt>
      <trkpt lat="45.6428" lon="6.58323">
        <ele>1575</ele>
        <time>2020-12-16T09:22:15.285Z</time>
      </trkpt>
      <trkpt lat="45.64241" lon="6.58329">
        <ele>1578</ele>
        <time>2020-12-16T09:23:14.690Z</time>
      </trkpt>
      <trkpt lat="45.6423" lon="6.58355">
        <ele>1579</ele>
        <time>2020-12-16T09:23:46.092Z</time>
      </trkpt>
      <trkpt lat="45.64199" lon="6.58363">
        <ele>1580</ele>
        <time>2020-12-16T09:24:32.456Z</time>
      </trkpt>
      <trkpt lat="45.64186" lon="6.58378">
        <ele>1581</ele>
        <time>2020-12-16T09:24:56.750Z</time>
      </trkpt>
      <trkpt lat="45.64186" lon="6.58407">
        <ele>1581</ele>
        <time>2020-12-16T09:25:25.495Z</time>
      </trkpt>
      <trkpt lat="45.64158" lon="6.58438">
        <ele>1581</ele>
        <time>2020-12-16T09:26:15.032Z</time>
      </trkpt>
      <trkpt lat="45.64149" lon="6.58434">
        <ele>1581</ele>
        <time>2020-12-16T09:26:27.572Z</time>
      </trkpt>
      <trkpt lat="45.64109" lon="6.58454">
        <ele>1582</ele>
        <time>2020-12-16T09:27:27.532Z</time>
      </trkpt>
      <trkpt lat="45.64096" lon="6.58481">
        <ele>1582</ele>
        <time>2020-12-16T09:28:03.431Z</time>
      </trkpt>
      <trkpt lat="45.64058" lon="6.58519">
        <ele>1586</ele>
        <time>2020-12-16T09:29:16.788Z</time>
      </trkpt>
      <trkpt lat="45.64039" lon="6.58557">
        <ele>1589</ele>
        <time>2020-12-16T09:30:14.443Z</time>
      </trkpt>
      <trkpt lat="45.64029" lon="6.58563">
        <ele>1590</ele>
        <time>2020-12-16T09:30:33.623Z</time>
      </trkpt>
      <trkpt lat="45.64013" lon="6.5856">
        <ele>1593</ele>
        <time>2020-12-16T09:31:03.600Z</time>
      </trkpt>
      <trkpt lat="45.63912" lon="6.58629">
        <ele>1606</ele>
        <time>2020-12-16T09:34:25.166Z</time>
      </trkpt>
      <trkpt lat="45.63817" lon="6.58674">
        <ele>1619</ele>
        <time>2020-12-16T09:37:40.589Z</time>
      </trkpt>
      <trkpt lat="45.63773" lon="6.58746">
        <ele>1632</ele>
        <time>2020-12-16T09:40:20.589Z</time>
      </trkpt>
      <trkpt lat="45.63773" lon="6.58767">
        <ele>1636</ele>
        <time>2020-12-16T09:40:58.852Z</time>
      </trkpt>
      <trkpt lat="45.63782" lon="6.58798">
        <ele>1641</ele>
        <time>2020-12-16T09:41:53.669Z</time>
      </trkpt>
      <trkpt lat="45.6377" lon="6.58809">
        <ele>1644</ele>
        <time>2020-12-16T09:42:27.665Z</time>
      </trkpt>
      <trkpt lat="45.63758" lon="6.58809">
        <ele>1646</ele>
        <time>2020-12-16T09:42:55.596Z</time>
      </trkpt>
      <trkpt lat="45.6375" lon="6.58827">
        <ele>1649</ele>
        <time>2020-12-16T09:43:30.118Z</time>
      </trkpt>
      <trkpt lat="45.63713" lon="6.58813">
        <ele>1656</ele>
        <time>2020-12-16T09:44:53.841Z</time>
      </trkpt>
      <trkpt lat="45.63693" lon="6.58822">
        <ele>1660</ele>
        <time>2020-12-16T09:45:37.925Z</time>
      </trkpt>
      <trkpt lat="45.63657" lon="6.5885">
        <ele>1666</ele>
        <time>2020-12-16T09:46:54.691Z</time>
      </trkpt>
      <trkpt lat="45.63619" lon="6.58868">
        <ele>1671</ele>
        <time>2020-12-16T09:48:08.014Z</time>
      </trkpt>
      <trkpt lat="45.63592" lon="6.58908">
        <ele>1676</ele>
        <time>2020-12-16T09:49:17.470Z</time>
      </trkpt>
      <trkpt lat="45.63577" lon="6.58911">
        <ele>1677</ele>
        <time>2020-12-16T09:49:42.757Z</time>
      </trkpt>
      <trkpt lat="45.63549" lon="6.58935">
        <ele>1681</ele>
        <time>2020-12-16T09:50:40.695Z</time>
      </trkpt>
      <trkpt lat="45.63521" lon="6.58949">
        <ele>1684</ele>
        <time>2020-12-16T09:51:30.335Z</time>
      </trkpt>
      <trkpt lat="45.63504" lon="6.58994">
        <ele>1688</ele>
        <time>2020-12-16T09:52:30.267Z</time>
      </trkpt>
      <trkpt lat="45.63474" lon="6.59033">
        <ele>1692</ele>
        <time>2020-12-16T09:53:35.176Z</time>
      </trkpt>
      <trkpt lat="45.63455" lon="6.59045">
        <ele>1694</ele>
        <time>2020-12-16T09:54:08.713Z</time>
      </trkpt>
      <trkpt lat="45.63418" lon="6.59046">
        <ele>1697</ele>
        <time>2020-12-16T09:55:09.275Z</time>
      </trkpt>
      <trkpt lat="45.63402" lon="6.59075">
        <ele>1700</ele>
        <time>2020-12-16T09:55:59.782Z</time>
      </trkpt>
      <trkpt lat="45.63386" lon="6.5908">
        <ele>1702</ele>
        <time>2020-12-16T09:56:32.286Z</time>
      </trkpt>
      <trkpt lat="45.63344" lon="6.59131">
        <ele>1711</ele>
        <time>2020-12-16T09:58:35.062Z</time>
      </trkpt>
      <trkpt lat="45.63288" lon="6.59161">
        <ele>1723</ele>
        <time>2020-12-16T10:00:57.502Z</time>
      </trkpt>
      <trkpt lat="45.6328" lon="6.5917">
        <ele>1725</ele>
        <time>2020-12-16T10:01:21.196Z</time>
      </trkpt>
      <trkpt lat="45.63296" lon="6.59183">
        <ele>1729</ele>
        <time>2020-12-16T10:02:02.016Z</time>
      </trkpt>
      <trkpt lat="45.63287" lon="6.59194">
        <ele>1731</ele>
        <time>2020-12-16T10:02:28.490Z</time>
      </trkpt>
      <trkpt lat="45.63289" lon="6.59207">
        <ele>1733</ele>
        <time>2020-12-16T10:02:48.621Z</time>
      </trkpt>
      <trkpt lat="45.63254" lon="6.59262">
        <ele>1742</ele>
        <time>2020-12-16T10:04:33.051Z</time>
      </trkpt>
      <trkpt lat="45.63251" lon="6.59283">
        <ele>1744</ele>
        <time>2020-12-16T10:05:04.209Z</time>
      </trkpt>
      <trkpt lat="45.63234" lon="6.59278">
        <ele>1746</ele>
        <time>2020-12-16T10:05:38.058Z</time>
      </trkpt>
      <trkpt lat="45.63224" lon="6.59291">
        <ele>1748</ele>
        <time>2020-12-16T10:06:02.870Z</time>
      </trkpt>
      <trkpt lat="45.63184" lon="6.59432">
        <ele>1762</ele>
        <time>2020-12-16T10:09:22.743Z</time>
      </trkpt>
      <trkpt lat="45.63179" lon="6.59472">
        <ele>1766</ele>
        <time>2020-12-16T10:10:14.482Z</time>
      </trkpt>
      <trkpt lat="45.63174" lon="6.59479">
        <ele>1767</ele>
        <time>2020-12-16T10:10:27.201Z</time>
      </trkpt>
      <trkpt lat="45.6316" lon="6.5948">
        <ele>1768</ele>
        <time>2020-12-16T10:10:51.518Z</time>
      </trkpt>
      <trkpt lat="45.63155" lon="6.5949">
        <ele>1769</ele>
        <time>2020-12-16T10:11:06.383Z</time>
      </trkpt>
      <trkpt lat="45.63154" lon="6.59527">
        <ele>1772</ele>
        <time>2020-12-16T10:11:47.857Z</time>
      </trkpt>
      <trkpt lat="45.63143" lon="6.59532">
        <ele>1773</ele>
        <time>2020-12-16T10:12:05.852Z</time>
      </trkpt>
      <trkpt lat="45.63138" lon="6.59574">
        <ele>1775</ele>
        <time>2020-12-16T10:12:50.329Z</time>
      </trkpt>
      <trkpt lat="45.63122" lon="6.59563">
        <ele>1776</ele>
        <time>2020-12-16T10:13:16.499Z</time>
      </trkpt>
      <trkpt lat="45.63065" lon="6.59557">
        <ele>1778</ele>
        <time>2020-12-16T10:14:39.857Z</time>
      </trkpt>
      <trkpt lat="45.6304" lon="6.59516">
        <ele>1779</ele>
        <time>2020-12-16T10:15:36.456Z</time>
      </trkpt>
      <trkpt lat="45.6303" lon="6.59512">
        <ele>1779</ele>
        <time>2020-12-16T10:15:52.567Z</time>
      </trkpt>
      <trkpt lat="45.62991" lon="6.59543">
        <ele>1783</ele>
        <time>2020-12-16T10:17:04.412Z</time>
      </trkpt>
      <trkpt lat="45.62988" lon="6.59535">
        <ele>1783</ele>
        <time>2020-12-16T10:17:13.856Z</time>
      </trkpt>
      <trkpt lat="45.62994" lon="6.59517">
        <ele>1785</ele>
        <time>2020-12-16T10:17:36.237Z</time>
      </trkpt>
      <trkpt lat="45.62992" lon="6.59488">
        <ele>1787</ele>
        <time>2020-12-16T10:18:13.554Z</time>
      </trkpt>
      <trkpt lat="45.62983" lon="6.59484">
        <ele>1788</ele>
        <time>2020-12-16T10:18:29.465Z</time>
      </trkpt>
      <trkpt lat="45.62959" lon="6.5952">
        <ele>1793</ele>
        <time>2020-12-16T10:19:39.789Z</time>
      </trkpt>
      <trkpt lat="45.62934" lon="6.59545">
        <ele>1798</ele>
        <time>2020-12-16T10:20:47.846Z</time>
      </trkpt>
      <trkpt lat="45.62917" lon="6.59537">
        <ele>1801</ele>
        <time>2020-12-16T10:21:27.654Z</time>
      </trkpt>
      <trkpt lat="45.6286" lon="6.59603">
        <ele>1815</ele>
        <time>2020-12-16T10:24:03.684Z</time>
      </trkpt>
      <trkpt lat="45.62803" lon="6.59606">
        <ele>1823</ele>
        <time>2020-12-16T10:25:40.914Z</time>
      </trkpt>
      <trkpt lat="45.62796" lon="6.59602">
        <ele>1824</ele>
        <time>2020-12-16T10:25:54.738Z</time>
      </trkpt>
      <trkpt lat="45.62769" lon="6.59636">
        <ele>1826</ele>
        <time>2020-12-16T10:26:50.865Z</time>
      </trkpt>
      <trkpt lat="45.62726" lon="6.59771">
        <ele>1833</ele>
        <time>2020-12-16T10:29:37.347Z</time>
      </trkpt>
      <trkpt lat="45.62734" lon="6.59795">
        <ele>1836</ele>
        <time>2020-12-16T10:30:09.769Z</time>
      </trkpt>
      <trkpt lat="45.62726" lon="6.59805">
        <ele>1838</ele>
        <time>2020-12-16T10:30:35.971Z</time>
      </trkpt>
      <trkpt lat="45.62716" lon="6.59804">
        <ele>1840</ele>
        <time>2020-12-16T10:31:01.111Z</time>
      </trkpt>
      <trkpt lat="45.62706" lon="6.59811">
        <ele>1843</ele>
        <time>2020-12-16T10:31:32.942Z</time>
      </trkpt>
      <trkpt lat="45.62707" lon="6.59838">
        <ele>1848</ele>
        <time>2020-12-16T10:32:30.984Z</time>
      </trkpt>
      <trkpt lat="45.62697" lon="6.5987">
        <ele>1855</ele>
        <time>2020-12-16T10:33:52.107Z</time>
      </trkpt>
      <trkpt lat="45.62678" lon="6.5989">
        <ele>1862</ele>
        <time>2020-12-16T10:35:08.084Z</time>
      </trkpt>
      <trkpt lat="45.62677" lon="6.59901">
        <ele>1864</ele>
        <time>2020-12-16T10:35:34.593Z</time>
      </trkpt>
      <trkpt lat="45.62687" lon="6.59915">
        <ele>1869</ele>
        <time>2020-12-16T10:36:20.952Z</time>
      </trkpt>
      <trkpt lat="45.6268" lon="6.59937">
        <ele>1873</ele>
        <time>2020-12-16T10:37:16.722Z</time>
      </trkpt>
      <trkpt lat="45.627" lon="6.59954">
        <ele>1880</ele>
        <time>2020-12-16T10:38:22.556Z</time>
      </trkpt>
      <trkpt lat="45.62715" lon="6.59988">
        <ele>1886</ele>
        <time>2020-12-16T10:39:31.975Z</time>
      </trkpt>
      <trkpt lat="45.62714" lon="6.60021">
        <ele>1891</ele>
        <time>2020-12-16T10:40:20.603Z</time>
      </trkpt>
      <trkpt lat="45.62719" lon="6.60029">
        <ele>1892</ele>
        <time>2020-12-16T10:40:36.592Z</time>
      </trkpt>
      <trkpt lat="45.6272" lon="6.60061">
        <ele>1895</ele>
        <time>2020-12-16T10:41:17.977Z</time>
      </trkpt>
      <trkpt lat="45.62693" lon="6.60033">
        <ele>1899</ele>
        <time>2020-12-16T10:42:16.691Z</time>
      </trkpt>
      <trkpt lat="45.62667" lon="6.60027">
        <ele>1902</ele>
        <time>2020-12-16T10:42:57.607Z</time>
      </trkpt>
      <trkpt lat="45.62622" lon="6.60035">
        <ele>1904</ele>
        <time>2020-12-16T10:44:05.336Z</time>
      </trkpt>
      <trkpt lat="45.62609" lon="6.60049">
        <ele>1904</ele>
        <time>2020-12-16T10:44:29.457Z</time>
      </trkpt>
      <trkpt lat="45.62588" lon="6.60098">
        <ele>1906</ele>
        <time>2020-12-16T10:45:29.540Z</time>
      </trkpt>
      <trkpt lat="45.62578" lon="6.60082">
        <ele>1906</ele>
        <time>2020-12-16T10:45:52.818Z</time>
      </trkpt>
      <trkpt lat="45.62577" lon="6.60047">
        <ele>1908</ele>
        <time>2020-12-16T10:46:31.087Z</time>
      </trkpt>
      <trkpt lat="45.62549" lon="6.60029">
        <ele>1910</ele>
        <time>2020-12-16T10:47:25.073Z</time>
      </trkpt>
      <trkpt lat="45.62537" lon="6.60013">
        <ele>1912</ele>
        <time>2020-12-16T10:47:53.481Z</time>
      </trkpt>
      <trkpt lat="45.62497" lon="6.60003">
        <ele>1918</ele>
        <time>2020-12-16T10:49:15.333Z</time>
      </trkpt>
      <trkpt lat="45.62465" lon="6.59976">
        <ele>1924</ele>
        <time>2020-12-16T10:50:32.216Z</time>
      </trkpt>
      <trkpt lat="45.62457" lon="6.59962">
        <ele>1926</ele>
        <time>2020-12-16T10:50:57.429Z</time>
      </trkpt>
      <trkpt lat="45.62454" lon="6.5997">
        <ele>1927</ele>
        <time>2020-12-16T10:51:10.625Z</time>
      </trkpt>
      <trkpt lat="45.62435" lon="6.59942">
        <ele>1931</ele>
        <time>2020-12-16T10:52:06.471Z</time>
      </trkpt>
      <trkpt lat="45.62427" lon="6.59942">
        <ele>1933</ele>
        <time>2020-12-16T10:52:23.627Z</time>
      </trkpt>
      <trkpt lat="45.6241" lon="6.59926">
        <ele>1936</ele>
        <time>2020-12-16T10:53:05.266Z</time>
      </trkpt>
      <trkpt lat="45.62398" lon="6.59931">
        <ele>1938</ele>
        <time>2020-12-16T10:53:28.257Z</time>
      </trkpt>
      <trkpt lat="45.62371" lon="6.59966">
        <ele>1943</ele>
        <time>2020-12-16T10:54:37.202Z</time>
      </trkpt>
      <trkpt lat="45.62356" lon="6.59967">
        <ele>1945</ele>
        <time>2020-12-16T10:55:04.388Z</time>
      </trkpt>
      <trkpt lat="45.6235" lon="6.59957">
        <ele>1946</ele>
        <time>2020-12-16T10:55:23.026Z</time>
      </trkpt>
      <trkpt lat="45.6233" lon="6.59963">
        <ele>1949</ele>
        <time>2020-12-16T10:56:04.827Z</time>
      </trkpt>
      <trkpt lat="45.623" lon="6.59961">
        <ele>1954</ele>
        <time>2020-12-16T10:57:07.664Z</time>
      </trkpt>
      <trkpt lat="45.62288" lon="6.59951">
        <ele>1956</ele>
        <time>2020-12-16T10:57:37.980Z</time>
      </trkpt>
      <trkpt lat="45.62286" lon="6.59937">
        <ele>1958</ele>
        <time>2020-12-16T10:57:59.012Z</time>
      </trkpt>
      <trkpt lat="45.62278" lon="6.5993">
        <ele>1959</ele>
        <time>2020-12-16T10:58:16.875Z</time>
      </trkpt>
      <trkpt lat="45.62266" lon="6.59938">
        <ele>1962</ele>
        <time>2020-12-16T10:58:46.709Z</time>
      </trkpt>
      <trkpt lat="45.62258" lon="6.5996">
        <ele>1964</ele>
        <time>2020-12-16T10:59:24.169Z</time>
      </trkpt>
      <trkpt lat="45.62247" lon="6.59953">
        <ele>1967</ele>
        <time>2020-12-16T10:59:49.789Z</time>
      </trkpt>
      <trkpt lat="45.62225" lon="6.59964">
        <ele>1971</ele>
        <time>2020-12-16T11:00:41.534Z</time>
      </trkpt>
      <trkpt lat="45.62224" lon="6.59972">
        <ele>1972</ele>
        <time>2020-12-16T11:00:53.881Z</time>
      </trkpt>
      <trkpt lat="45.62211" lon="6.59979">
        <ele>1975</ele>
        <time>2020-12-16T11:01:25.455Z</time>
      </trkpt>
      <trkpt lat="45.62199" lon="6.59998">
        <ele>1978</ele>
        <time>2020-12-16T11:02:05.983Z</time>
      </trkpt>
      <trkpt lat="45.62192" lon="6.59993">
        <ele>1979</ele>
        <time>2020-12-16T11:02:24.167Z</time>
      </trkpt>
      <trkpt lat="45.62181" lon="6.60006">
        <ele>1982</ele>
        <time>2020-12-16T11:02:57.259Z</time>
      </trkpt>
      <trkpt lat="45.62163" lon="6.60013">
        <ele>1986</ele>
        <time>2020-12-16T11:03:41.348Z</time>
      </trkpt>
      <trkpt lat="45.62162" lon="6.60039">
        <ele>1990</ele>
        <time>2020-12-16T11:04:26.457Z</time>
      </trkpt>
      <trkpt lat="45.62121" lon="6.60027">
        <ele>1999</ele>
        <time>2020-12-16T11:06:12.218Z</time>
      </trkpt>
      <trkpt lat="45.62119" lon="6.60016">
        <ele>2001</ele>
        <time>2020-12-16T11:06:30.768Z</time>
      </trkpt>
      <trkpt lat="45.62092" lon="6.6002">
        <ele>2007</ele>
        <time>2020-12-16T11:07:46.643Z</time>
      </trkpt>
      <trkpt lat="45.62108" lon="6.59999">
        <ele>2013</ele>
        <time>2020-12-16T11:08:48.454Z</time>
      </trkpt>
      <trkpt lat="45.62105" lon="6.5999">
        <ele>2015</ele>
        <time>2020-12-16T11:09:11.645Z</time>
      </trkpt>
      <trkpt lat="45.62077" lon="6.60008">
        <ele>2023</ele>
        <time>2020-12-16T11:10:44.940Z</time>
      </trkpt>
      <trkpt lat="45.62041" lon="6.60003">
        <ele>2033</ele>
        <time>2020-12-16T11:12:37.565Z</time>
      </trkpt>
      <trkpt lat="45.62014" lon="6.60016">
        <ele>2041</ele>
        <time>2020-12-16T11:14:05.747Z</time>
      </trkpt>
      <trkpt lat="45.62013" lon="6.59999">
        <ele>2044</ele>
        <time>2020-12-16T11:14:40.671Z</time>
      </trkpt>
      <trkpt lat="45.62" lon="6.60008">
        <ele>2048</ele>
        <time>2020-12-16T11:15:19.769Z</time>
      </trkpt>
      <trkpt lat="45.61996" lon="6.59988">
        <ele>2051</ele>
        <time>2020-12-16T11:16:00.729Z</time>
      </trkpt>
      <trkpt lat="45.61973" lon="6.59997">
        <ele>2057</ele>
        <time>2020-12-16T11:17:01.937Z</time>
      </trkpt>
      <trkpt lat="45.61973" lon="6.59971">
        <ele>2061</ele>
        <time>2020-12-16T11:17:41.821Z</time>
      </trkpt>
      <trkpt lat="45.61964" lon="6.59954">
        <ele>2064</ele>
        <time>2020-12-16T11:18:13.188Z</time>
      </trkpt>
      <trkpt lat="45.61866" lon="6.60014">
        <ele>2080</ele>
        <time>2020-12-16T11:21:28.298Z</time>
      </trkpt>
      <trkpt lat="45.61856" lon="6.60026">
        <ele>2081</ele>
        <time>2020-12-16T11:21:51.718Z</time>
      </trkpt>
      <trkpt lat="45.61823" lon="6.60076">
        <ele>2085</ele>
        <time>2020-12-16T11:23:07.654Z</time>
      </trkpt>
      <trkpt lat="45.61777" lon="6.60177">
        <ele>2091</ele>
        <time>2020-12-16T11:25:19.356Z</time>
      </trkpt>
      <trkpt lat="45.61711" lon="6.6027">
        <ele>2098</ele>
        <time>2020-12-16T11:27:45.548Z</time>
      </trkpt>
      <trkpt lat="45.61722" lon="6.60302">
        <ele>2100</ele>
        <time>2020-12-16T11:28:27.694Z</time>
      </trkpt>
      <trkpt lat="45.61729" lon="6.60308">
        <ele>2101</ele>
        <time>2020-12-16T11:28:42.419Z</time>
      </trkpt>
      <trkpt lat="45.61779" lon="6.60314">
        <ele>2107</ele>
        <time>2020-12-16T11:30:24.329Z</time>
      </trkpt>
      <trkpt lat="45.61859" lon="6.60339">
        <ele>2122</ele>
        <time>2020-12-16T11:33:31.502Z</time>
      </trkpt>
      <trkpt lat="45.61882" lon="6.60338">
        <ele>2127</ele>
        <time>2020-12-16T11:34:38.913Z</time>
      </trkpt>
      <trkpt lat="45.61947" lon="6.60384">
        <ele>2147</ele>
        <time>2020-12-16T11:38:28.920Z</time>
      </trkpt>
      <trkpt lat="45.61972" lon="6.60416">
        <ele>2157</ele>
        <time>2020-12-16T11:40:01.219Z</time>
      </trkpt>
      <trkpt lat="45.62006" lon="6.60509">
        <ele>2173</ele>
        <time>2020-12-16T11:42:16.623Z</time>
      </trkpt>
      <trkpt lat="45.62091" lon="6.60634">
        <ele>2182</ele>
        <time>2020-12-16T11:45:30.020Z</time>
      </trkpt>
      <trkpt lat="45.62117" lon="6.60657">
        <ele>2185</ele>
        <time>2020-12-16T11:46:19.972Z</time>
      </trkpt>
      <trkpt lat="45.62147" lon="6.60657">
        <ele>2188</ele>
        <time>2020-12-16T11:47:15.999Z</time>
      </trkpt>
      <trkpt lat="45.62188" lon="6.60683">
        <ele>2195</ele>
        <time>2020-12-16T11:48:55.831Z</time>
      </trkpt>
      <trkpt lat="45.62199" lon="6.60699">
        <ele>2198</ele>
        <time>2020-12-16T11:49:31.738Z</time>
      </trkpt>
      <trkpt lat="45.62229" lon="6.60797">
        <ele>2213</ele>
        <time>2020-12-16T11:52:24.352Z</time>
      </trkpt>
      <trkpt lat="45.62241" lon="6.60806">
        <ele>2215</ele>
        <time>2020-12-16T11:52:56.289Z</time>
      </trkpt>
      <trkpt lat="45.6226" lon="6.60803">
        <ele>2219</ele>
        <time>2020-12-16T11:53:42.764Z</time>
      </trkpt>
      <trkpt lat="45.62318" lon="6.60872">
        <ele>2235</ele>
        <time>2020-12-16T11:56:55.017Z</time>
      </trkpt>
      <trkpt lat="45.62328" lon="6.60906">
        <ele>2242</ele>
        <time>2020-12-16T11:58:13.767Z</time>
      </trkpt>
      <trkpt lat="45.62318" lon="6.60872">
        <ele>2235</ele>
        <time>2020-12-16T12:30:49.337Z</time>
      </trkpt>
      <trkpt lat="45.6226" lon="6.60803">
        <ele>2219</ele>
        <time>2020-12-16T12:33:07.466Z</time>
      </trkpt>
      <trkpt lat="45.62241" lon="6.60806">
        <ele>2215</ele>
        <time>2020-12-16T12:33:43.446Z</time>
      </trkpt>
      <trkpt lat="45.62229" lon="6.60797">
        <ele>2213</ele>
        <time>2020-12-16T12:34:07.722Z</time>
      </trkpt>
      <trkpt lat="45.62199" lon="6.60699">
        <ele>2198</ele>
        <time>2020-12-16T12:36:18.106Z</time>
      </trkpt>
      <trkpt lat="45.62188" lon="6.60683">
        <ele>2195</ele>
        <time>2020-12-16T12:36:46.067Z</time>
      </trkpt>
      <trkpt lat="45.62147" lon="6.60657">
        <ele>2188</ele>
        <time>2020-12-16T12:37:54.313Z</time>
      </trkpt>
      <trkpt lat="45.62117" lon="6.60657">
        <ele>2185</ele>
        <time>2020-12-16T12:38:37.704Z</time>
      </trkpt>
      <trkpt lat="45.62091" lon="6.60634">
        <ele>2182</ele>
        <time>2020-12-16T12:39:20.785Z</time>
      </trkpt>
      <trkpt lat="45.62006" lon="6.60509">
        <ele>2173</ele>
        <time>2020-12-16T12:42:26.625Z</time>
      </trkpt>
      <trkpt lat="45.61972" lon="6.60416">
        <ele>2157</ele>
        <time>2020-12-16T12:44:56.551Z</time>
      </trkpt>
      <trkpt lat="45.61947" lon="6.60384">
        <ele>2147</ele>
        <time>2020-12-16T12:46:12.990Z</time>
      </trkpt>
      <trkpt lat="45.61882" lon="6.60338">
        <ele>2127</ele>
        <time>2020-12-16T12:48:48.366Z</time>
      </trkpt>
      <trkpt lat="45.61859" lon="6.60339">
        <ele>2122</ele>
        <time>2020-12-16T12:49:28.939Z</time>
      </trkpt>
      <trkpt lat="45.61779" lon="6.60314">
        <ele>2107</ele>
        <time>2020-12-16T12:51:41.567Z</time>
      </trkpt>
      <trkpt lat="45.61729" lon="6.60308">
        <ele>2101</ele>
        <time>2020-12-16T12:52:54.657Z</time>
      </trkpt>
      <trkpt lat="45.61722" lon="6.60302">
        <ele>2100</ele>
        <time>2020-12-16T12:53:07.397Z</time>
      </trkpt>
      <trkpt lat="45.61711" lon="6.6027">
        <ele>2098</ele>
        <time>2020-12-16T12:53:42.348Z</time>
      </trkpt>
      <trkpt lat="45.61777" lon="6.60177">
        <ele>2091</ele>
        <time>2020-12-16T12:55:53.741Z</time>
      </trkpt>
      <trkpt lat="45.61823" lon="6.60076">
        <ele>2085</ele>
        <time>2020-12-16T12:57:53.039Z</time>
      </trkpt>
      <trkpt lat="45.61856" lon="6.60026">
        <ele>2081</ele>
        <time>2020-12-16T12:59:06.118Z</time>
      </trkpt>
      <trkpt lat="45.61866" lon="6.60014">
        <ele>2080</ele>
        <time>2020-12-16T12:59:25.546Z</time>
      </trkpt>
      <trkpt lat="45.61964" lon="6.59954">
        <ele>2064</ele>
        <time>2020-12-16T13:02:20.805Z</time>
      </trkpt>
      <trkpt lat="45.61973" lon="6.59971">
        <ele>2061</ele>
        <time>2020-12-16T13:02:46.291Z</time>
      </trkpt>
      <trkpt lat="45.61973" lon="6.59997">
        <ele>2057</ele>
        <time>2020-12-16T13:03:22.167Z</time>
      </trkpt>
      <trkpt lat="45.61996" lon="6.59988">
        <ele>2051</ele>
        <time>2020-12-16T13:04:11.496Z</time>
      </trkpt>
      <trkpt lat="45.62" lon="6.60008">
        <ele>2048</ele>
        <time>2020-12-16T13:04:42.024Z</time>
      </trkpt>
      <trkpt lat="45.62013" lon="6.59999">
        <ele>2044</ele>
        <time>2020-12-16T13:05:11.980Z</time>
      </trkpt>
      <trkpt lat="45.62014" lon="6.60016">
        <ele>2041</ele>
        <time>2020-12-16T13:05:38.375Z</time>
      </trkpt>
      <trkpt lat="45.62041" lon="6.60003">
        <ele>2033</ele>
        <time>2020-12-16T13:06:42.286Z</time>
      </trkpt>
      <trkpt lat="45.62077" lon="6.60008">
        <ele>2023</ele>
        <time>2020-12-16T13:08:00.516Z</time>
      </trkpt>
      <trkpt lat="45.62105" lon="6.5999">
        <ele>2015</ele>
        <time>2020-12-16T13:09:06.415Z</time>
      </trkpt>
      <trkpt lat="45.62108" lon="6.59999">
        <ele>2013</ele>
        <time>2020-12-16T13:09:22.557Z</time>
      </trkpt>
      <trkpt lat="45.62092" lon="6.6002">
        <ele>2007</ele>
        <time>2020-12-16T13:10:07.493Z</time>
      </trkpt>
      <trkpt lat="45.62119" lon="6.60016">
        <ele>2001</ele>
        <time>2020-12-16T13:11:00.315Z</time>
      </trkpt>
      <trkpt lat="45.62121" lon="6.60027">
        <ele>1999</ele>
        <time>2020-12-16T13:11:14.689Z</time>
      </trkpt>
      <trkpt lat="45.62162" lon="6.60039">
        <ele>1990</ele>
        <time>2020-12-16T13:12:35.766Z</time>
      </trkpt>
      <trkpt lat="45.62163" lon="6.60013">
        <ele>1986</ele>
        <time>2020-12-16T13:13:10.677Z</time>
      </trkpt>
      <trkpt lat="45.62181" lon="6.60006">
        <ele>1982</ele>
        <time>2020-12-16T13:13:43.226Z</time>
      </trkpt>
      <trkpt lat="45.62192" lon="6.59993">
        <ele>1979</ele>
        <time>2020-12-16T13:14:08.466Z</time>
      </trkpt>
      <trkpt lat="45.62199" lon="6.59998">
        <ele>1978</ele>
        <time>2020-12-16T13:14:22.740Z</time>
      </trkpt>
      <trkpt lat="45.62211" lon="6.59979">
        <ele>1975</ele>
        <time>2020-12-16T13:14:52.443Z</time>
      </trkpt>
      <trkpt lat="45.62224" lon="6.59972">
        <ele>1972</ele>
        <time>2020-12-16T13:15:17.546Z</time>
      </trkpt>
      <trkpt lat="45.62225" lon="6.59964">
        <ele>1971</ele>
        <time>2020-12-16T13:15:27.169Z</time>
      </trkpt>
      <trkpt lat="45.62247" lon="6.59953">
        <ele>1967</ele>
        <time>2020-12-16T13:16:06.659Z</time>
      </trkpt>
      <trkpt lat="45.62258" lon="6.5996">
        <ele>1964</ele>
        <time>2020-12-16T13:16:27.272Z</time>
      </trkpt>
      <trkpt lat="45.62266" lon="6.59938">
        <ele>1962</ele>
        <time>2020-12-16T13:16:56.206Z</time>
      </trkpt>
      <trkpt lat="45.62278" lon="6.5993">
        <ele>1959</ele>
        <time>2020-12-16T13:17:17.911Z</time>
      </trkpt>
      <trkpt lat="45.62286" lon="6.59937">
        <ele>1958</ele>
        <time>2020-12-16T13:17:31.887Z</time>
      </trkpt>
      <trkpt lat="45.62288" lon="6.59951">
        <ele>1956</ele>
        <time>2020-12-16T13:17:49.006Z</time>
      </trkpt>
      <trkpt lat="45.623" lon="6.59961">
        <ele>1954</ele>
        <time>2020-12-16T13:18:12.378Z</time>
      </trkpt>
      <trkpt lat="45.6233" lon="6.59963">
        <ele>1949</ele>
        <time>2020-12-16T13:18:58.968Z</time>
      </trkpt>
      <trkpt lat="45.6235" lon="6.59957">
        <ele>1946</ele>
        <time>2020-12-16T13:19:31.549Z</time>
      </trkpt>
      <trkpt lat="45.62356" lon="6.59967">
        <ele>1945</ele>
        <time>2020-12-16T13:19:45.952Z</time>
      </trkpt>
      <trkpt lat="45.62371" lon="6.59966">
        <ele>1943</ele>
        <time>2020-12-16T13:20:07.863Z</time>
      </trkpt>
      <trkpt lat="45.62398" lon="6.59931">
        <ele>1938</ele>
        <time>2020-12-16T13:21:04.924Z</time>
      </trkpt>
      <trkpt lat="45.6241" lon="6.59926">
        <ele>1936</ele>
        <time>2020-12-16T13:21:23.590Z</time>
      </trkpt>
      <trkpt lat="45.62427" lon="6.59942">
        <ele>1933</ele>
        <time>2020-12-16T13:21:57.053Z</time>
      </trkpt>
      <trkpt lat="45.62435" lon="6.59942">
        <ele>1931</ele>
        <time>2020-12-16T13:22:10.398Z</time>
      </trkpt>
      <trkpt lat="45.62454" lon="6.5997">
        <ele>1927</ele>
        <time>2020-12-16T13:22:53.181Z</time>
      </trkpt>
      <trkpt lat="45.62457" lon="6.59962">
        <ele>1926</ele>
        <time>2020-12-16T13:23:03.508Z</time>
      </trkpt>
      <trkpt lat="45.62465" lon="6.59976">
        <ele>1924</ele>
        <time>2020-12-16T13:23:23.240Z</time>
      </trkpt>
      <trkpt lat="45.62497" lon="6.60003">
        <ele>1918</ele>
        <time>2020-12-16T13:24:22.925Z</time>
      </trkpt>
      <trkpt lat="45.62537" lon="6.60013">
        <ele>1912</ele>
        <time>2020-12-16T13:25:23.292Z</time>
      </trkpt>
      <trkpt lat="45.62549" lon="6.60029">
        <ele>1910</ele>
        <time>2020-12-16T13:25:47.530Z</time>
      </trkpt>
      <trkpt lat="45.62577" lon="6.60047">
        <ele>1908</ele>
        <time>2020-12-16T13:26:31.136Z</time>
      </trkpt>
      <trkpt lat="45.62578" lon="6.60082">
        <ele>1906</ele>
        <time>2020-12-16T13:27:04.944Z</time>
      </trkpt>
      <trkpt lat="45.62588" lon="6.60098">
        <ele>1906</ele>
        <time>2020-12-16T13:27:26.270Z</time>
      </trkpt>
      <trkpt lat="45.62609" lon="6.60049">
        <ele>1904</ele>
        <time>2020-12-16T13:28:21.314Z</time>
      </trkpt>
      <trkpt lat="45.62622" lon="6.60035">
        <ele>1904</ele>
        <time>2020-12-16T13:28:43.822Z</time>
      </trkpt>
      <trkpt lat="45.62667" lon="6.60027">
        <ele>1902</ele>
        <time>2020-12-16T13:29:48.216Z</time>
      </trkpt>
      <trkpt lat="45.62693" lon="6.60033">
        <ele>1899</ele>
        <time>2020-12-16T13:30:27.636Z</time>
      </trkpt>
      <trkpt lat="45.6272" lon="6.60061">
        <ele>1895</ele>
        <time>2020-12-16T13:31:17.724Z</time>
      </trkpt>
      <trkpt lat="45.62719" lon="6.60029">
        <ele>1892</ele>
        <time>2020-12-16T13:31:55.532Z</time>
      </trkpt>
      <trkpt lat="45.62714" lon="6.60021">
        <ele>1891</ele>
        <time>2020-12-16T13:32:08.013Z</time>
      </trkpt>
      <trkpt lat="45.62715" lon="6.59988">
        <ele>1886</ele>
        <time>2020-12-16T13:32:51.276Z</time>
      </trkpt>
      <trkpt lat="45.627" lon="6.59954">
        <ele>1880</ele>
        <time>2020-12-16T13:33:50.495Z</time>
      </trkpt>
      <trkpt lat="45.6268" lon="6.59937">
        <ele>1873</ele>
        <time>2020-12-16T13:34:45.390Z</time>
      </trkpt>
      <trkpt lat="45.62687" lon="6.59915">
        <ele>1869</ele>
        <time>2020-12-16T13:35:24.480Z</time>
      </trkpt>
      <trkpt lat="45.62677" lon="6.59901">
        <ele>1864</ele>
        <time>2020-12-16T13:35:57.019Z</time>
      </trkpt>
      <trkpt lat="45.62678" lon="6.5989">
        <ele>1862</ele>
        <time>2020-12-16T13:36:15.870Z</time>
      </trkpt>
      <trkpt lat="45.62697" lon="6.5987">
        <ele>1855</ele>
        <time>2020-12-16T13:37:10.182Z</time>
      </trkpt>
      <trkpt lat="45.62707" lon="6.59838">
        <ele>1848</ele>
        <time>2020-12-16T13:38:04.684Z</time>
      </trkpt>
      <trkpt lat="45.62706" lon="6.59811">
        <ele>1843</ele>
        <time>2020-12-16T13:38:44.107Z</time>
      </trkpt>
      <trkpt lat="45.62716" lon="6.59804">
        <ele>1840</ele>
        <time>2020-12-16T13:39:05.595Z</time>
      </trkpt>
      <trkpt lat="45.62726" lon="6.59805">
        <ele>1838</ele>
        <time>2020-12-16T13:39:25.089Z</time>
      </trkpt>
      <trkpt lat="45.62734" lon="6.59795">
        <ele>1836</ele>
        <time>2020-12-16T13:39:41.018Z</time>
      </trkpt>
      <trkpt lat="45.62726" lon="6.59771">
        <ele>1833</ele>
        <time>2020-12-16T13:40:08.308Z</time>
      </trkpt>
      <trkpt lat="45.62769" lon="6.59636">
        <ele>1826</ele>
        <time>2020-12-16T13:42:32.972Z</time>
      </trkpt>
      <trkpt lat="45.62796" lon="6.59602">
        <ele>1824</ele>
        <time>2020-12-16T13:43:26.850Z</time>
      </trkpt>
      <trkpt lat="45.62803" lon="6.59606">
        <ele>1823</ele>
        <time>2020-12-16T13:43:38.829Z</time>
      </trkpt>
      <trkpt lat="45.6286" lon="6.59603">
        <ele>1815</ele>
        <time>2020-12-16T13:45:13.471Z</time>
      </trkpt>
      <trkpt lat="45.62917" lon="6.59537">
        <ele>1801</ele>
        <time>2020-12-16T13:47:19.490Z</time>
      </trkpt>
      <trkpt lat="45.62934" lon="6.59545">
        <ele>1798</ele>
        <time>2020-12-16T13:47:50.511Z</time>
      </trkpt>
      <trkpt lat="45.62959" lon="6.5952">
        <ele>1793</ele>
        <time>2020-12-16T13:48:39.078Z</time>
      </trkpt>
      <trkpt lat="45.62983" lon="6.59484">
        <ele>1788</ele>
        <time>2020-12-16T13:49:31.950Z</time>
      </trkpt>
      <trkpt lat="45.62992" lon="6.59488">
        <ele>1787</ele>
        <time>2020-12-16T13:49:45.190Z</time>
      </trkpt>
      <trkpt lat="45.62994" lon="6.59517">
        <ele>1785</ele>
        <time>2020-12-16T13:50:14.603Z</time>
      </trkpt>
      <trkpt lat="45.62988" lon="6.59535">
        <ele>1783</ele>
        <time>2020-12-16T13:50:34.603Z</time>
      </trkpt>
      <trkpt lat="45.62991" lon="6.59543">
        <ele>1783</ele>
        <time>2020-12-16T13:50:43.086Z</time>
      </trkpt>
      <trkpt lat="45.6303" lon="6.59512">
        <ele>1779</ele>
        <time>2020-12-16T13:51:44.292Z</time>
      </trkpt>
      <trkpt lat="45.6304" lon="6.59516">
        <ele>1779</ele>
        <time>2020-12-16T13:51:58.952Z</time>
      </trkpt>
      <trkpt lat="45.63065" lon="6.59557">
        <ele>1778</ele>
        <time>2020-12-16T13:52:50.453Z</time>
      </trkpt>
      <trkpt lat="45.63122" lon="6.59563">
        <ele>1776</ele>
        <time>2020-12-16T13:54:09.237Z</time>
      </trkpt>
      <trkpt lat="45.63138" lon="6.59574">
        <ele>1775</ele>
        <time>2020-12-16T13:54:33.297Z</time>
      </trkpt>
      <trkpt lat="45.63143" lon="6.59532">
        <ele>1773</ele>
        <time>2020-12-16T13:55:16.124Z</time>
      </trkpt>
      <trkpt lat="45.63154" lon="6.59527">
        <ele>1772</ele>
        <time>2020-12-16T13:55:32.308Z</time>
      </trkpt>
      <trkpt lat="45.63155" lon="6.5949">
        <ele>1769</ele>
        <time>2020-12-16T13:56:10.510Z</time>
      </trkpt>
      <trkpt lat="45.6316" lon="6.5948">
        <ele>1768</ele>
        <time>2020-12-16T13:56:23.561Z</time>
      </trkpt>
      <trkpt lat="45.63174" lon="6.59479">
        <ele>1767</ele>
        <time>2020-12-16T13:56:44.058Z</time>
      </trkpt>
      <trkpt lat="45.63179" lon="6.59472">
        <ele>1766</ele>
        <time>2020-12-16T13:56:54.793Z</time>
      </trkpt>
      <trkpt lat="45.63184" lon="6.59432">
        <ele>1762</ele>
        <time>2020-12-16T13:57:39.014Z</time>
      </trkpt>
      <trkpt lat="45.63224" lon="6.59291">
        <ele>1748</ele>
        <time>2020-12-16T14:00:20.913Z</time>
      </trkpt>
      <trkpt lat="45.63234" lon="6.59278">
        <ele>1746</ele>
        <time>2020-12-16T14:00:41.192Z</time>
      </trkpt>
      <trkpt lat="45.63251" lon="6.59283">
        <ele>1744</ele>
        <time>2020-12-16T14:01:09.802Z</time>
      </trkpt>
      <trkpt lat="45.63254" lon="6.59262">
        <ele>1742</ele>
        <time>2020-12-16T14:01:34.224Z</time>
      </trkpt>
      <trkpt lat="45.63289" lon="6.59207">
        <ele>1733</ele>
        <time>2020-12-16T14:03:05.619Z</time>
      </trkpt>
      <trkpt lat="45.63287" lon="6.59194">
        <ele>1731</ele>
        <time>2020-12-16T14:03:21.287Z</time>
      </trkpt>
      <trkpt lat="45.63296" lon="6.59183">
        <ele>1729</ele>
        <time>2020-12-16T14:03:41.957Z</time>
      </trkpt>
      <trkpt lat="45.6328" lon="6.5917">
        <ele>1725</ele>
        <time>2020-12-16T14:04:14.820Z</time>
      </trkpt>
      <trkpt lat="45.63288" lon="6.59161">
        <ele>1723</ele>
        <time>2020-12-16T14:04:33.432Z</time>
      </trkpt>
      <trkpt lat="45.63344" lon="6.59131">
        <ele>1711</ele>
        <time>2020-12-16T14:06:17.189Z</time>
      </trkpt>
      <trkpt lat="45.63386" lon="6.5908">
        <ele>1702</ele>
        <time>2020-12-16T14:07:42.579Z</time>
      </trkpt>
      <trkpt lat="45.63402" lon="6.59075">
        <ele>1700</ele>
        <time>2020-12-16T14:08:08.354Z</time>
      </trkpt>
      <trkpt lat="45.63418" lon="6.59046">
        <ele>1697</ele>
        <time>2020-12-16T14:08:46.027Z</time>
      </trkpt>
      <trkpt lat="45.63455" lon="6.59045">
        <ele>1694</ele>
        <time>2020-12-16T14:09:40.186Z</time>
      </trkpt>
      <trkpt lat="45.63474" lon="6.59033">
        <ele>1692</ele>
        <time>2020-12-16T14:10:10.339Z</time>
      </trkpt>
      <trkpt lat="45.63504" lon="6.58994">
        <ele>1688</ele>
        <time>2020-12-16T14:11:09.782Z</time>
      </trkpt>
      <trkpt lat="45.63521" lon="6.58949">
        <ele>1684</ele>
        <time>2020-12-16T14:12:02.345Z</time>
      </trkpt>
      <trkpt lat="45.63549" lon="6.58935">
        <ele>1681</ele>
        <time>2020-12-16T14:12:45.568Z</time>
      </trkpt>
      <trkpt lat="45.63577" lon="6.58911">
        <ele>1677</ele>
        <time>2020-12-16T14:13:35.419Z</time>
      </trkpt>
      <trkpt lat="45.63592" lon="6.58908">
        <ele>1676</ele>
        <time>2020-12-16T14:13:56.995Z</time>
      </trkpt>
      <trkpt lat="45.63619" lon="6.58868">
        <ele>1671</ele>
        <time>2020-12-16T14:14:57.088Z</time>
      </trkpt>
      <trkpt lat="45.63657" lon="6.5885">
        <ele>1666</ele>
        <time>2020-12-16T14:15:58.743Z</time>
      </trkpt>
      <trkpt lat="45.63693" lon="6.58822">
        <ele>1660</ele>
        <time>2020-12-16T14:17:03.558Z</time>
      </trkpt>
      <trkpt lat="45.63713" lon="6.58813">
        <ele>1656</ele>
        <time>2020-12-16T14:17:39.332Z</time>
      </trkpt>
      <trkpt lat="45.6375" lon="6.58827">
        <ele>1649</ele>
        <time>2020-12-16T14:18:45.989Z</time>
      </trkpt>
      <trkpt lat="45.63758" lon="6.58809">
        <ele>1646</ele>
        <time>2020-12-16T14:19:14.303Z</time>
      </trkpt>
      <trkpt lat="45.6377" lon="6.58809">
        <ele>1644</ele>
        <time>2020-12-16T14:19:35.923Z</time>
      </trkpt>
      <trkpt lat="45.63782" lon="6.58798">
        <ele>1641</ele>
        <time>2020-12-16T14:20:02.475Z</time>
      </trkpt>
      <trkpt lat="45.63773" lon="6.58767">
        <ele>1636</ele>
        <time>2020-12-16T14:20:47.320Z</time>
      </trkpt>
      <trkpt lat="45.63773" lon="6.58746">
        <ele>1632</ele>
        <time>2020-12-16T14:21:16.964Z</time>
      </trkpt>
      <trkpt lat="45.63817" lon="6.58674">
        <ele>1619</ele>
        <time>2020-12-16T14:23:08.519Z</time>
      </trkpt>
      <trkpt lat="45.63912" lon="6.58629">
        <ele>1606</ele>
        <time>2020-12-16T14:25:39.748Z</time>
      </trkpt>
      <trkpt lat="45.64013" lon="6.5856">
        <ele>1593</ele>
        <time>2020-12-16T14:28:27.741Z</time>
      </trkpt>
      <trkpt lat="45.64029" lon="6.58563">
        <ele>1590</ele>
        <time>2020-12-16T14:28:52.583Z</time>
      </trkpt>
      <trkpt lat="45.64039" lon="6.58557">
        <ele>1589</ele>
        <time>2020-12-16T14:29:08.839Z</time>
      </trkpt>
      <trkpt lat="45.64058" lon="6.58519">
        <ele>1586</ele>
        <time>2020-12-16T14:29:56.064Z</time>
      </trkpt>
      <trkpt lat="45.64096" lon="6.58481">
        <ele>1582</ele>
        <time>2020-12-16T14:30:59.323Z</time>
      </trkpt>
      <trkpt lat="45.64109" lon="6.58454">
        <ele>1582</ele>
        <time>2020-12-16T14:31:31.794Z</time>
      </trkpt>
      <trkpt lat="45.64149" lon="6.58434">
        <ele>1581</ele>
        <time>2020-12-16T14:32:30.134Z</time>
      </trkpt>
      <trkpt lat="45.64158" lon="6.58438">
        <ele>1581</ele>
        <time>2020-12-16T14:32:42.414Z</time>
      </trkpt>
      <trkpt lat="45.64186" lon="6.58407">
        <ele>1581</ele>
        <time>2020-12-16T14:33:30.925Z</time>
      </trkpt>
      <trkpt lat="45.64186" lon="6.58378">
        <ele>1581</ele>
        <time>2020-12-16T14:33:58.963Z</time>
      </trkpt>
      <trkpt lat="45.64199" lon="6.58363">
        <ele>1580</ele>
        <time>2020-12-16T14:34:22.435Z</time>
      </trkpt>
      <trkpt lat="45.6423" lon="6.58355">
        <ele>1579</ele>
        <time>2020-12-16T14:35:06.475Z</time>
      </trkpt>
      <trkpt lat="45.64241" lon="6.58329">
        <ele>1578</ele>
        <time>2020-12-16T14:35:35.033Z</time>
      </trkpt>
      <trkpt lat="45.6428" lon="6.58323">
        <ele>1575</ele>
        <time>2020-12-16T14:36:29.969Z</time>
      </trkpt>
      <trkpt lat="45.64327" lon="6.58304">
        <ele>1572</ele>
        <time>2020-12-16T14:37:37.984Z</time>
      </trkpt>
      <trkpt lat="45.64339" lon="6.58319">
        <ele>1571</ele>
        <time>2020-12-16T14:38:00.060Z</time>
      </trkpt>
      <trkpt lat="45.64367" lon="6.5831">
        <ele>1571</ele>
        <time>2020-12-16T14:38:39.660Z</time>
      </trkpt>
      <trkpt lat="45.64399" lon="6.58287">
        <ele>1570</ele>
        <time>2020-12-16T14:39:28.983Z</time>
      </trkpt>
      <trkpt lat="45.64428" lon="6.58282">
        <ele>1570</ele>
        <time>2020-12-16T14:40:08.787Z</time>
      </trkpt>
      <trkpt lat="45.645" lon="6.58297">
        <ele>1567</ele>
        <time>2020-12-16T14:41:49.230Z</time>
      </trkpt>
      <trkpt lat="45.64525" lon="6.58292">
        <ele>1566</ele>
        <time>2020-12-16T14:42:23.504Z</time>
      </trkpt>
      <trkpt lat="45.64586" lon="6.58307">
        <ele>1563</ele>
        <time>2020-12-16T14:43:49.626Z</time>
      </trkpt>
      <trkpt lat="45.64607" lon="6.58326">
        <ele>1562</ele>
        <time>2020-12-16T14:44:23.015Z</time>
      </trkpt>
      <trkpt lat="45.6463" lon="6.58312">
        <ele>1563</ele>
        <time>2020-12-16T14:45:01.642Z</time>
      </trkpt>
      <trkpt lat="45.64649" lon="6.58329">
        <ele>1564</ele>
        <time>2020-12-16T14:45:34.190Z</time>
      </trkpt>
      <trkpt lat="45.64658" lon="6.58351">
        <ele>1565</ele>
        <time>2020-12-16T14:46:02.276Z</time>
      </trkpt>
      <trkpt lat="45.64657" lon="6.58373">
        <ele>1566</ele>
        <time>2020-12-16T14:46:24.434Z</time>
      </trkpt>
      <trkpt lat="45.64662" lon="6.58389">
        <ele>1567</ele>
        <time>2020-12-16T14:46:42.666Z</time>
      </trkpt>
      <trkpt lat="45.64718" lon="6.58467">
        <ele>1568</ele>
        <time>2020-12-16T14:48:30.202Z</time>
      </trkpt>
      <trkpt lat="45.64749" lon="6.5848">
        <ele>1566</ele>
        <time>2020-12-16T14:49:16.496Z</time>
      </trkpt>
      <trkpt lat="45.64762" lon="6.58473">
        <ele>1565</ele>
        <time>2020-12-16T14:49:35.542Z</time>
      </trkpt>
      <trkpt lat="45.64815" lon="6.58402">
        <ele>1559</ele>
        <time>2020-12-16T14:51:18.040Z</time>
      </trkpt>
      <trkpt lat="45.64837" lon="6.58388">
        <ele>1558</ele>
        <time>2020-12-16T14:51:54.228Z</time>
      </trkpt>
      <trkpt lat="45.64896" lon="6.58387">
        <ele>1562</ele>
        <time>2020-12-16T14:53:27.669Z</time>
      </trkpt>
      <trkpt lat="45.64932" lon="6.58397">
        <ele>1566</ele>
        <time>2020-12-16T14:54:32.672Z</time>
      </trkpt>
      <trkpt lat="45.64964" lon="6.58397">
        <ele>1570</ele>
        <time>2020-12-16T14:55:29.295Z</time>
      </trkpt>
      <trkpt lat="45.64992" lon="6.58388">
        <ele>1573</ele>
        <time>2020-12-16T14:56:12.017Z</time>
      </trkpt>
      <trkpt lat="45.65006" lon="6.58399">
        <ele>1574</ele>
        <time>2020-12-16T14:56:36.458Z</time>
      </trkpt>
      <trkpt lat="45.65032" lon="6.58446">
        <ele>1575</ele>
        <time>2020-12-16T14:57:34.605Z</time>
      </trkpt>
      <trkpt lat="45.65048" lon="6.58441">
        <ele>1575</ele>
        <time>2020-12-16T14:57:56.701Z</time>
      </trkpt>
      <trkpt lat="45.6506" lon="6.5842">
        <ele>1574</ele>
        <time>2020-12-16T14:58:22.515Z</time>
      </trkpt>
      <trkpt lat="45.65076" lon="6.58363">
        <ele>1573</ele>
        <time>2020-12-16T14:59:22.261Z</time>
      </trkpt>
      <trkpt lat="45.65079" lon="6.58329">
        <ele>1571</ele>
        <time>2020-12-16T14:59:55.839Z</time>
      </trkpt>
      <trkpt lat="45.65115" lon="6.58258">
        <ele>1569</ele>
        <time>2020-12-16T15:01:20.471Z</time>
      </trkpt>
      <trkpt lat="45.65118" lon="6.58242">
        <ele>1568</ele>
        <time>2020-12-16T15:01:36.491Z</time>
      </trkpt>
      <trkpt lat="45.65098" lon="6.58122">
        <ele>1568</ele>
        <time>2020-12-16T15:03:39.861Z</time>
      </trkpt>
      <trkpt lat="45.65101" lon="6.58094">
        <ele>1569</ele>
        <time>2020-12-16T15:04:08.851Z</time>
      </trkpt>
      <trkpt lat="45.65116" lon="6.5808">
        <ele>1570</ele>
        <time>2020-12-16T15:04:37.503Z</time>
      </trkpt>
      <trkpt lat="45.65154" lon="6.58087">
        <ele>1572</ele>
        <time>2020-12-16T15:05:29.386Z</time>
      </trkpt>
      <trkpt lat="45.65239" lon="6.58016">
        <ele>1569</ele>
        <time>2020-12-16T15:07:48.193Z</time>
      </trkpt>
      <trkpt lat="45.65311" lon="6.57986">
        <ele>1560</ele>
        <time>2020-12-16T15:09:40.970Z</time>
      </trkpt>
      <trkpt lat="45.65399" lon="6.57988">
        <ele>1550</ele>
        <time>2020-12-16T15:11:49.916Z</time>
      </trkpt>
      <trkpt lat="45.65422" lon="6.58003">
        <ele>1548</ele>
        <time>2020-12-16T15:12:27.502Z</time>
      </trkpt>
      <trkpt lat="45.65537" lon="6.58021">
        <ele>1538</ele>
        <time>2020-12-16T15:15:14.801Z</time>
      </trkpt>
      <trkpt lat="45.65585" lon="6.58043">
        <ele>1533</ele>
        <time>2020-12-16T15:16:29.153Z</time>
      </trkpt>
      <trkpt lat="45.6559" lon="6.58034">
        <ele>1532</ele>
        <time>2020-12-16T15:16:41.027Z</time>
      </trkpt>
      <trkpt lat="45.65553" lon="6.57998">
        <ele>1527</ele>
        <time>2020-12-16T15:17:47.451Z</time>
      </trkpt>
      <trkpt lat="45.65519" lon="6.57976">
        <ele>1523</ele>
        <time>2020-12-16T15:18:42.103Z</time>
      </trkpt>
      <trkpt lat="45.65421" lon="6.57931">
        <ele>1512</ele>
        <time>2020-12-16T15:21:12.599Z</time>
      </trkpt>
      <trkpt lat="45.65378" lon="6.57898">
        <ele>1508</ele>
        <time>2020-12-16T15:22:22.239Z</time>
      </trkpt>
      <trkpt lat="45.65286" lon="6.57891">
        <ele>1501</ele>
        <time>2020-12-16T15:24:32.508Z</time>
      </trkpt>
      <trkpt lat="45.65249" lon="6.57894">
        <ele>1498</ele>
        <time>2020-12-16T15:25:27.115Z</time>
      </trkpt>
      <trkpt lat="45.65201" lon="6.57906">
        <ele>1493</ele>
        <time>2020-12-16T15:26:35.282Z</time>
      </trkpt>
      <trkpt lat="45.65197" lon="6.57901">
        <ele>1493</ele>
        <time>2020-12-16T15:26:43.786Z</time>
      </trkpt>
      <trkpt lat="45.65206" lon="6.5789">
        <ele>1492</ele>
        <time>2020-12-16T15:27:00.019Z</time>
      </trkpt>
      <trkpt lat="45.65291" lon="6.5785">
        <ele>1486</ele>
        <time>2020-12-16T15:29:03.655Z</time>
      </trkpt>
      <trkpt lat="45.65419" lon="6.5783">
        <ele>1483</ele>
        <time>2020-12-16T15:32:00.964Z</time>
      </trkpt>
      <trkpt lat="45.65555" lon="6.57836">
        <ele>1475</ele>
        <time>2020-12-16T15:35:10.294Z</time>
      </trkpt>
      <trkpt lat="45.6565" lon="6.57823">
        <ele>1469</ele>
        <time>2020-12-16T15:37:23.359Z</time>
      </trkpt>
      <trkpt lat="45.65698" lon="6.5785">
        <ele>1466</ele>
        <time>2020-12-16T15:38:35.058Z</time>
      </trkpt>
      <trkpt lat="45.6574" lon="6.57854">
        <ele>1463</ele>
        <time>2020-12-16T15:39:34.720Z</time>
      </trkpt>
      <trkpt lat="45.65781" lon="6.5788">
        <ele>1460</ele>
        <time>2020-12-16T15:40:37.719Z</time>
      </trkpt>
      <trkpt lat="45.65827" lon="6.57894">
        <ele>1456</ele>
        <time>2020-12-16T15:41:45.024Z</time>
      </trkpt>
      <trkpt lat="45.65928" lon="6.57896">
        <ele>1448</ele>
        <time>2020-12-16T15:44:07.153Z</time>
      </trkpt>
      <trkpt lat="45.65961" lon="6.57885">
        <ele>1446</ele>
        <time>2020-12-16T15:44:55.089Z</time>
      </trkpt>
      <trkpt lat="45.65979" lon="6.57866">
        <ele>1444</ele>
        <time>2020-12-16T15:45:27.459Z</time>
      </trkpt>
      <trkpt lat="45.65994" lon="6.57817">
        <ele>1442</ele>
        <time>2020-12-16T15:46:18.565Z</time>
      </trkpt>
      <trkpt lat="45.66029" lon="6.57798">
        <ele>1440</ele>
        <time>2020-12-16T15:47:09.716Z</time>
      </trkpt>
      <trkpt lat="45.66063" lon="6.57789">
        <ele>1438</ele>
        <time>2020-12-16T15:47:58.525Z</time>
      </trkpt>
      <trkpt lat="45.6608" lon="6.57798">
        <ele>1437</ele>
        <time>2020-12-16T15:48:22.899Z</time>
      </trkpt>
      <trkpt lat="45.66113" lon="6.57843">
        <ele>1435</ele>
        <time>2020-12-16T15:49:26.963Z</time>
      </trkpt>
      <trkpt lat="45.66167" lon="6.57873">
        <ele>1430</ele>
        <time>2020-12-16T15:50:49.739Z</time>
      </trkpt>
      <trkpt lat="45.66189" lon="6.57865">
        <ele>1428</ele>
        <time>2020-12-16T15:51:23.329Z</time>
      </trkpt>
      <trkpt lat="45.66208" lon="6.57848">
        <ele>1426</ele>
        <time>2020-12-16T15:51:54.746Z</time>
      </trkpt>
      <trkpt lat="45.66238" lon="6.57847">
        <ele>1424</ele>
        <time>2020-12-16T15:52:38.190Z</time>
      </trkpt>
      <trkpt lat="45.66273" lon="6.57862">
        <ele>1420</ele>
        <time>2020-12-16T15:53:31.172Z</time>
      </trkpt>
      <trkpt lat="45.66297" lon="6.57887">
        <ele>1418</ele>
        <time>2020-12-16T15:54:11.683Z</time>
      </trkpt>
      <trkpt lat="45.66332" lon="6.57895">
        <ele>1416</ele>
        <time>2020-12-16T15:55:01.174Z</time>
      </trkpt>
      <trkpt lat="45.66355" lon="6.57908">
        <ele>1414</ele>
        <time>2020-12-16T15:55:37.624Z</time>
      </trkpt>
      <trkpt lat="45.66442" lon="6.57923">
        <ele>1406</ele>
        <time>2020-12-16T15:57:46.380Z</time>
      </trkpt>
      <trkpt lat="45.66564" lon="6.579">
        <ele>1393</ele>
        <time>2020-12-16T16:00:45.319Z</time>
      </trkpt>
      <trkpt lat="45.66613" lon="6.57873">
        <ele>1389</ele>
        <time>2020-12-16T16:01:57.211Z</time>
      </trkpt>
      <trkpt lat="45.66647" lon="6.57869">
        <ele>1388</ele>
        <time>2020-12-16T16:02:45.436Z</time>
      </trkpt>
      <trkpt lat="45.66684" lon="6.5785">
        <ele>1386</ele>
        <time>2020-12-16T16:03:39.932Z</time>
      </trkpt>
      <trkpt lat="45.66759" lon="6.57831">
        <ele>1381</ele>
        <time>2020-12-16T16:05:27.734Z</time>
      </trkpt>
      <trkpt lat="45.668" lon="6.57803">
        <ele>1377</ele>
        <time>2020-12-16T16:06:34.560Z</time>
      </trkpt>
      <trkpt lat="45.66894" lon="6.57813">
        <ele>1367</ele>
        <time>2020-12-16T16:08:52.814Z</time>
      </trkpt>
      <trkpt lat="45.66952" lon="6.57797">
        <ele>1361</ele>
        <time>2020-12-16T16:10:21.927Z</time>
      </trkpt>
      <trkpt lat="45.67098" lon="6.57795">
        <ele>1341</ele>
        <time>2020-12-16T16:14:06.886Z</time>
      </trkpt>
      <trkpt lat="45.67123" lon="6.57805">
        <ele>1337</ele>
        <time>2020-12-16T16:14:45.929Z</time>
      </trkpt>
      <trkpt lat="45.67246" lon="6.5796">
        <ele>1317</ele>
        <time>2020-12-16T16:18:52.322Z</time>
      </trkpt>
      <trkpt lat="45.67278" lon="6.5797">
        <ele>1314</ele>
        <time>2020-12-16T16:19:38.842Z</time>
      </trkpt>
    </trkseg>
  </trk>
</gpx>